createdAt,value
2023-04-09T00:00:36.878Z,100.00
2023-04-09T00:03:03.898Z,100.00
2023-04-09T00:05:30.898Z,100.00
2023-04-09T00:07:57.714Z,100.00
2023-04-09T00:10:27.098Z,100.00
2023-04-09T00:12:56.942Z,100.00
2023-04-09T00:15:31.189Z,100.00
2023-04-09T00:17:59.523Z,100.00
2023-04-09T00:20:29.363Z,100.00
2023-04-09T00:23:03.649Z,100.00
2023-04-09T00:25:33.340Z,100.00
2023-04-09T00:28:00.307Z,100.00
2023-04-09T00:30:34.098Z,100.00
2023-04-09T00:33:01.077Z,100.00
2023-04-09T00:35:27.740Z,100.00
2023-04-09T00:37:54.517Z,100.00
2023-04-09T00:40:23.999Z,100.00
2023-04-09T00:42:52.763Z,100.00
2023-04-09T00:45:21.608Z,100.00
2023-04-09T00:47:48.678Z,100.00
2023-04-09T00:50:19.207Z,100.00
2023-04-09T00:52:46.126Z,100.00
2023-04-09T00:55:16.961Z,100.00
2023-04-09T00:57:43.910Z,100.00
2023-04-09T01:00:13.272Z,100.00
2023-04-09T01:02:43.571Z,100.00
2023-04-09T01:05:13.467Z,100.00
2023-04-09T01:07:40.038Z,100.00
2023-04-09T01:10:21.918Z,100.00
2023-04-09T01:13:11.984Z,100.00
2023-04-09T01:16:02.613Z,100.00
2023-04-09T01:18:52.837Z,100.00
2023-04-09T01:21:26.342Z,100.00
2023-04-09T01:24:16.921Z,100.00
2023-04-09T01:27:07.796Z,100.00
2023-04-09T01:29:46.678Z,100.00
2023-04-09T01:32:21.436Z,100.00
2023-04-09T01:34:54.159Z,100.00
2023-04-09T01:37:23.177Z,100.00
2023-04-09T01:39:50.139Z,100.00
2023-04-09T01:42:23.764Z,100.00
2023-04-09T01:44:55.892Z,100.00
2023-04-09T01:47:30.929Z,100.00
2023-04-09T01:50:01.453Z,100.00
2023-04-09T01:52:28.576Z,100.00
2023-04-09T01:55:04.012Z,100.00
2023-04-09T01:57:33.794Z,100.00
2023-04-09T02:00:01.099Z,100.00
2023-04-09T02:03:14.214Z,100.00
2023-04-09T02:05:53.286Z,100.00
2023-04-09T02:08:23.056Z,100.00
2023-04-09T02:10:55.715Z,100.00
2023-04-09T02:13:26.494Z,100.00
2023-04-09T02:15:54.350Z,100.00
2023-04-09T02:18:33.871Z,100.00
2023-04-09T02:21:01.214Z,100.00
2023-04-09T02:23:30.287Z,100.00
2023-04-09T02:25:57.090Z,100.00
2023-04-09T02:28:26.981Z,100.00
2023-04-09T02:30:56.810Z,100.00
2023-04-09T02:33:27.653Z,100.00
2023-04-09T02:35:57.015Z,100.00
2023-04-09T02:38:26.871Z,100.00
2023-04-09T02:40:56.048Z,100.00
2023-04-09T02:43:34.586Z,100.00
2023-04-09T02:46:08.327Z,100.00
2023-04-09T02:48:35.066Z,100.00
2023-04-09T02:51:04.935Z,100.00
2023-04-09T02:53:31.619Z,100.00
2023-04-09T02:56:01.027Z,100.00
2023-04-09T02:58:27.917Z,100.00
2023-04-09T03:00:54.643Z,100.00
2023-04-09T03:03:21.579Z,100.00
2023-04-09T03:05:48.220Z,100.00
2023-04-09T03:08:15.306Z,100.00
2023-04-09T03:10:42.516Z,100.00
2023-04-09T03:13:09.292Z,100.00
2023-04-09T03:15:36.229Z,100.00
2023-04-09T03:18:05.277Z,100.00
2023-04-09T03:20:34.251Z,100.00
2023-04-09T03:23:03.005Z,100.00
2023-04-09T03:25:30.104Z,100.00
2023-04-09T03:27:56.927Z,100.00
2023-04-09T03:30:26.691Z,100.00
2023-04-09T03:32:53.586Z,100.00
2023-04-09T03:35:23.098Z,100.00
2023-04-09T03:37:49.996Z,100.00
2023-04-09T03:40:17.160Z,100.00
2023-04-09T03:42:47.196Z,100.00
2023-04-09T03:45:16.596Z,100.00
2023-04-09T03:47:50.693Z,100.00
2023-04-09T03:50:17.801Z,100.00
2023-04-09T03:52:47.153Z,100.00
2023-04-09T03:55:13.895Z,100.00
2023-04-09T03:57:40.582Z,100.00
2023-04-09T04:00:13.114Z,100.00
2023-04-09T04:02:46.070Z,100.00
2023-04-09T04:05:14.318Z,100.00
2023-04-09T04:07:43.997Z,100.00
2023-04-09T04:10:13.588Z,100.00
2023-04-09T04:12:40.414Z,100.00
2023-04-09T04:15:11.111Z,100.00
2023-04-09T04:17:40.977Z,100.00
2023-04-09T04:20:13.481Z,100.00
2023-04-09T04:22:40.216Z,100.00
2023-04-09T04:25:07.165Z,100.00
2023-04-09T04:27:33.977Z,100.00
2023-04-09T04:30:02.260Z,100.00
2023-04-09T04:32:29.284Z,100.00
2023-04-09T04:34:56.110Z,100.00
2023-04-09T04:37:22.827Z,100.00
2023-04-09T04:39:51.915Z,100.00
2023-04-09T04:42:21.557Z,100.00
2023-04-09T04:44:50.826Z,100.00
2023-04-09T04:47:21.965Z,100.00
2023-04-09T04:49:51.532Z,100.00
2023-04-09T04:52:22.167Z,100.00
2023-04-09T04:54:49.007Z,100.00
2023-04-09T04:57:16.826Z,100.00
2023-04-09T04:59:44.056Z,100.00
2023-04-09T05:02:31.391Z,100.00
2023-04-09T05:04:58.457Z,100.00
2023-04-09T05:07:25.464Z,100.00
2023-04-09T05:09:52.445Z,100.00
2023-04-09T05:12:19.460Z,100.00
2023-04-09T05:14:46.428Z,100.00
2023-04-09T05:17:13.201Z,100.00
2023-04-09T05:19:53.536Z,100.00
2023-04-09T05:22:22.832Z,100.00
2023-04-09T05:24:52.652Z,100.00
2023-04-09T05:27:21.023Z,100.00
2023-04-09T05:29:50.361Z,100.00
2023-04-09T05:32:22.419Z,100.00
2023-04-09T05:34:55.237Z,100.00
2023-04-09T05:37:22.285Z,100.00
2023-04-09T05:39:49.186Z,100.00
2023-04-09T05:42:16.106Z,100.00
2023-04-09T05:44:45.760Z,100.00
2023-04-09T05:47:13.636Z,100.00
2023-04-09T05:49:40.518Z,100.00
2023-04-09T05:52:07.686Z,100.00
2023-04-09T05:54:35.547Z,100.00
2023-04-09T05:57:02.453Z,100.00
2023-04-09T05:59:29.518Z,100.00
2023-04-09T06:01:56.614Z,100.00
2023-04-09T06:04:23.926Z,100.00
2023-04-09T06:06:52.124Z,100.00
2023-04-09T06:09:26.530Z,100.00
2023-04-09T06:11:53.578Z,100.00
2023-04-09T06:14:21.751Z,100.00
2023-04-09T06:16:48.545Z,100.00
2023-04-09T06:19:19.150Z,100.00
2023-04-09T06:21:46.190Z,100.00
2023-04-09T06:24:15.473Z,100.00
2023-04-09T06:26:47.797Z,100.00
2023-04-09T06:29:20.624Z,100.00
2023-04-09T06:31:54.580Z,100.00
2023-04-09T06:34:24.395Z,100.00
2023-04-09T06:37:01.377Z,100.00
2023-04-09T06:39:29.580Z,100.00
2023-04-09T06:41:56.676Z,100.00
2023-04-09T06:44:24.548Z,100.00
2023-04-09T06:46:51.574Z,100.00
2023-04-09T06:49:18.327Z,100.00
2023-04-09T06:51:45.312Z,100.00
2023-04-09T06:54:13.094Z,100.00
2023-04-09T06:56:40.055Z,100.00
2023-04-09T06:59:14.711Z,100.00
2023-04-09T07:01:41.975Z,100.00
2023-04-09T07:07:21.463Z,100.00
2023-04-09T07:09:51.681Z,100.00
2023-04-09T07:12:38.998Z,100.00
2023-04-09T07:15:09.977Z,100.00
2023-04-09T07:17:39.126Z,100.00
2023-04-09T07:20:06.517Z,100.00
2023-04-09T07:22:33.268Z,100.00
2023-04-09T07:25:00.743Z,100.00
2023-04-09T07:27:28.763Z,100.00
2023-04-09T07:29:57.276Z,100.00
2023-04-09T07:32:25.558Z,100.00
2023-04-09T07:34:59.615Z,100.00
2023-04-09T07:37:27.191Z,100.00
2023-04-09T07:39:54.138Z,100.00
2023-04-09T07:42:24.179Z,100.00
2023-04-09T07:44:51.521Z,100.00
2023-04-09T07:47:18.482Z,100.00
2023-04-09T07:49:45.345Z,100.00
2023-04-09T07:52:14.920Z,100.00
2023-04-09T07:54:41.890Z,100.00
2023-04-09T07:57:27.761Z,100.00
2023-04-09T07:59:58.704Z,100.00
2023-04-09T08:02:25.687Z,100.00
2023-04-09T08:04:52.898Z,100.00
2023-04-09T08:07:22.992Z,100.00
2023-04-09T08:09:49.969Z,100.00
2023-04-09T08:12:16.933Z,100.00
2023-04-09T08:14:46.216Z,100.00
2023-04-09T08:17:16.236Z,100.00
2023-04-09T08:19:45.877Z,100.00
2023-04-09T08:22:15.761Z,100.00
2023-04-09T08:24:45.674Z,100.00
2023-04-09T08:27:15.394Z,100.00
2023-04-09T08:29:43.528Z,100.00
2023-04-09T08:32:10.456Z,100.00
2023-04-09T08:34:37.690Z,100.00
2023-04-09T08:37:10.598Z,100.00
2023-04-09T08:39:37.258Z,100.00
2023-04-09T08:42:08.266Z,100.00
2023-04-09T08:44:38.105Z,100.00
2023-04-09T08:47:16.949Z,100.00
2023-04-09T08:49:50.350Z,100.00
2023-04-09T08:52:22.113Z,100.00
2023-04-09T08:54:51.616Z,100.00
2023-04-09T08:57:18.519Z,100.00
2023-04-09T08:59:51.742Z,100.00
2023-04-09T09:02:18.805Z,100.00
2023-04-09T09:04:47.782Z,100.00
2023-04-09T09:07:17.155Z,100.00
2023-04-09T09:09:52.844Z,100.00
2023-04-09T09:12:43.637Z,100.00
2023-04-09T09:15:32.558Z,100.00
2023-04-09T09:18:02.373Z,100.00
2023-04-09T09:20:54.142Z,100.00
2023-04-09T09:23:40.140Z,100.00
2023-04-09T09:26:40.475Z,100.00
2023-04-09T09:29:07.393Z,100.00
2023-04-09T09:31:49.660Z,100.00
2023-04-09T09:34:18.873Z,100.00
2023-04-09T09:36:48.176Z,100.00
2023-04-09T09:39:22.181Z,100.00
2023-04-09T09:41:51.620Z,100.00
2023-04-09T09:44:37.008Z,100.00
2023-04-09T09:47:06.442Z,100.00
2023-04-09T09:49:36.298Z,100.00
2023-04-09T09:52:09.075Z,100.00
2023-04-09T09:54:46.679Z,100.00
2023-04-09T09:57:23.161Z,100.00
2023-04-09T10:00:15.570Z,100.00
2023-04-09T10:03:05.173Z,100.00
2023-04-09T10:05:35.142Z,100.00
2023-04-09T10:08:03.580Z,100.00
2023-04-09T10:10:31.455Z,100.00
2023-04-09T10:12:59.347Z,100.00
2023-04-09T10:15:29.036Z,100.00
2023-04-09T10:17:56.234Z,100.00
2023-04-09T10:20:55.524Z,100.00
2023-04-09T10:23:33.132Z,100.00
2023-04-09T10:26:03.034Z,100.00
2023-04-09T10:28:31.197Z,100.00
2023-04-09T10:31:00.824Z,100.00
2023-04-09T10:33:28.864Z,100.00
2023-04-09T10:35:59.769Z,100.00
2023-04-09T10:38:45.713Z,100.00
2023-04-09T10:41:22.487Z,100.00
2023-04-09T10:43:50.648Z,100.00
2023-04-09T10:46:30.999Z,100.00
2023-04-09T10:49:17.757Z,100.00
2023-04-09T10:52:09.535Z,100.00
2023-04-09T10:54:46.491Z,100.00
2023-04-09T10:57:18.674Z,100.00
2023-04-09T10:59:56.539Z,100.00
2023-04-09T11:02:38.750Z,100.00
2023-04-09T11:05:18.461Z,100.00
2023-04-09T11:07:51.834Z,100.00
2023-04-09T11:10:20.025Z,100.00
2023-04-09T11:12:50.367Z,100.00
2023-04-09T11:15:18.536Z,100.00
2023-04-09T11:17:47.231Z,100.00
2023-04-09T11:20:17.753Z,100.00
2023-04-09T11:22:48.212Z,100.00
2023-04-09T11:25:32.118Z,100.00
2023-04-09T11:27:59.634Z,100.00
2023-04-09T11:30:26.660Z,100.00
2023-04-09T11:32:55.904Z,100.00
2023-04-09T11:35:23.830Z,100.00
2023-04-09T11:37:52.463Z,100.00
2023-04-09T11:40:33.785Z,100.00
2023-04-09T11:43:01.169Z,100.00
2023-04-09T11:45:29.621Z,100.00
2023-04-09T11:47:56.775Z,100.00
2023-04-09T11:50:24.284Z,100.00
2023-04-09T11:52:51.169Z,100.00
2023-04-09T11:55:29.682Z,100.00
2023-04-09T11:58:05.749Z,100.00
2023-04-09T12:00:32.786Z,100.00
2023-04-09T12:03:05.854Z,100.00
2023-04-09T12:05:34.908Z,100.00
2023-04-09T12:08:05.001Z,100.00
2023-04-09T12:10:33.940Z,100.00
2023-04-09T12:13:16.774Z,100.00
2023-04-09T12:15:43.806Z,95.88
2023-04-09T12:18:14.996Z,95.52
2023-04-09T12:20:49.781Z,94.25
2023-04-09T12:23:17.943Z,93.88
2023-04-09T12:25:45.673Z,94.94
2023-04-09T12:28:19.316Z,85.88
2023-04-09T12:31:04.212Z,83.06
2023-04-09T12:33:36.941Z,80.36
2023-04-09T12:36:03.838Z,79.15
2023-04-09T12:38:33.713Z,80.51
2023-04-09T12:41:05.264Z,82.27
2023-04-09T12:43:31.908Z,77.23
2023-04-09T12:46:02.024Z,79.16
2023-04-09T12:48:28.798Z,75.70
2023-04-09T12:50:57.898Z,73.21
2023-04-09T12:53:24.879Z,88.53
2023-04-09T12:55:51.813Z,90.35
2023-04-09T12:58:18.786Z,88.03
2023-04-09T13:00:48.485Z,78.60
2023-04-09T13:03:17.144Z,93.46
2023-04-09T13:05:47.399Z,100.00
2023-04-09T13:08:14.137Z,100.00
2023-04-09T13:10:42.350Z,100.00
2023-04-09T13:13:16.613Z,100.00
2023-04-09T13:15:45.121Z,100.00
2023-04-09T13:18:13.381Z,100.00
2023-04-09T13:20:40.345Z,100.00
2023-04-09T13:23:07.336Z,100.00
2023-04-09T13:25:34.152Z,100.00
2023-04-09T13:28:00.869Z,100.00
2023-04-09T13:30:27.779Z,100.00
2023-04-09T13:32:54.473Z,100.00
2023-04-09T13:35:22.501Z,100.00
2023-04-09T13:37:49.271Z,100.00
2023-04-09T13:40:16.536Z,100.00
2023-04-09T13:42:46.120Z,100.00
2023-04-09T13:45:18.033Z,100.00
2023-04-09T13:47:45.080Z,100.00
2023-04-09T13:50:17.501Z,100.00
2023-04-09T13:52:44.288Z,100.00
2023-04-09T13:55:13.842Z,100.00
2023-04-09T13:57:40.839Z,100.00
2023-04-09T14:00:14.199Z,100.00
2023-04-09T14:02:43.072Z,100.00
2023-04-09T14:05:10.311Z,100.00
2023-04-09T14:07:37.020Z,100.00
2023-04-09T14:10:04.035Z,100.00
2023-04-09T14:12:31.997Z,100.00
2023-04-09T14:15:02.086Z,100.00
2023-04-09T14:17:31.590Z,100.00
2023-04-09T14:20:03.913Z,100.00
2023-04-09T14:22:43.134Z,100.00
2023-04-09T14:25:12.271Z,100.00
2023-04-09T14:27:47.428Z,100.00
2023-04-09T14:30:20.208Z,100.00
2023-04-09T14:32:46.960Z,100.00
2023-04-09T14:35:16.963Z,100.00
2023-04-09T14:37:43.799Z,100.00
2023-04-09T14:40:10.737Z,100.00
2023-04-09T14:42:37.608Z,100.00
2023-04-09T14:45:07.820Z,100.00
2023-04-09T14:47:34.508Z,100.00
2023-04-09T14:50:12.084Z,100.00
2023-04-09T14:52:39.193Z,100.00
2023-04-09T14:55:13.026Z,100.00
2023-04-09T14:57:40.283Z,100.00
2023-04-09T15:00:11.800Z,100.00
2023-04-09T15:02:39.426Z,100.00
2023-04-09T15:05:14.271Z,100.00
2023-04-09T15:07:43.952Z,100.00
2023-04-09T15:10:13.964Z,100.00
2023-04-09T15:12:45.367Z,100.00
2023-04-09T15:15:14.928Z,100.00
2023-04-09T15:17:42.046Z,100.00
2023-04-09T15:20:09.272Z,99.37
2023-04-09T15:22:38.337Z,96.31
2023-04-09T15:25:08.074Z,97.75
2023-04-09T15:27:35.046Z,94.70
2023-04-09T15:30:07.401Z,90.73
2023-04-09T15:32:34.189Z,91.32
2023-04-09T15:35:06.273Z,88.74
2023-04-09T15:37:33.665Z,86.41
2023-04-09T15:40:00.404Z,88.03
2023-04-09T15:42:31.913Z,85.18
2023-04-09T15:45:07.311Z,87.99
2023-04-09T15:47:34.299Z,90.64
2023-04-09T15:50:10.132Z,87.95
2023-04-09T15:52:39.997Z,86.91
2023-04-09T15:55:07.145Z,87.10
2023-04-09T15:57:33.931Z,87.82
2023-04-09T16:00:02.952Z,85.70
2023-04-09T16:02:42.132Z,85.89
2023-04-09T16:05:19.243Z,87.47
2023-04-09T16:07:46.049Z,85.69
2023-04-09T16:10:17.517Z,83.22
2023-04-09T16:12:44.234Z,77.90
2023-04-09T16:15:12.629Z,82.41
2023-04-09T16:17:41.051Z,77.33
2023-04-09T16:20:13.904Z,76.00
2023-04-09T16:22:41.009Z,78.66
2023-04-09T16:25:08.317Z,83.57
2023-04-09T16:27:35.047Z,86.86
2023-04-09T16:30:02.266Z,87.52
2023-04-09T16:32:29.445Z,87.95
2023-04-09T16:35:00.509Z,90.14
2023-04-09T16:37:31.242Z,90.92
2023-04-09T16:40:06.055Z,93.75
2023-04-09T16:42:32.987Z,95.89
2023-04-09T16:45:04.733Z,95.34
2023-04-09T16:47:32.819Z,78.81
2023-04-09T16:49:59.909Z,72.54
2023-04-09T16:52:30.216Z,72.99
2023-04-09T16:55:02.080Z,73.33
2023-04-09T16:57:28.989Z,72.93
2023-04-09T16:59:58.829Z,70.33
2023-04-09T17:02:38.041Z,71.52
2023-04-09T17:05:05.834Z,71.22
2023-04-09T17:07:38.687Z,70.24
2023-04-09T17:10:09.271Z,70.02
2023-04-09T17:12:36.844Z,69.64
2023-04-09T17:15:04.056Z,71.55
2023-04-09T17:17:33.722Z,69.95
2023-04-09T17:20:01.957Z,71.61
2023-04-09T17:22:31.274Z,71.93
2023-04-09T17:24:58.275Z,71.19
2023-04-09T17:27:29.787Z,71.22
2023-04-09T17:29:56.556Z,71.96
2023-04-09T17:32:23.517Z,72.82
2023-04-09T17:34:51.552Z,74.41
2023-04-09T17:37:28.465Z,72.64
2023-04-09T17:40:08.844Z,74.17
2023-04-09T17:42:38.996Z,73.74
2023-04-09T17:45:06.658Z,73.73
2023-04-09T17:47:35.917Z,74.06
2023-04-09T17:50:03.116Z,75.85
2023-04-09T17:52:38.871Z,75.42
2023-04-09T17:55:13.045Z,76.26
2023-04-09T17:57:45.754Z,77.40
2023-04-09T18:00:16.713Z,77.41
2023-04-09T18:02:47.034Z,77.73
2023-04-09T18:05:17.280Z,78.32
2023-04-09T18:07:48.914Z,81.25
2023-04-09T18:10:20.459Z,80.99
2023-04-09T18:12:47.328Z,80.93
2023-04-09T18:15:22.800Z,82.03
2023-04-09T18:17:49.787Z,82.53
2023-04-09T18:20:17.126Z,83.05
2023-04-09T18:22:47.580Z,83.93
2023-04-09T18:25:22.309Z,85.05
2023-04-09T18:27:51.705Z,86.40
2023-04-09T18:30:32.865Z,87.62
2023-04-09T18:32:59.844Z,89.48
2023-04-09T18:35:55.581Z,90.08
2023-04-09T18:38:22.764Z,90.70
2023-04-09T18:40:59.020Z,90.87
2023-04-09T18:43:32.591Z,91.67
2023-04-09T18:46:02.684Z,92.23
2023-04-09T18:48:29.528Z,93.24
2023-04-09T18:50:56.711Z,93.24
2023-04-09T18:53:25.817Z,93.76
2023-04-09T18:55:52.770Z,93.83
2023-04-09T18:58:19.629Z,94.71
2023-04-09T19:00:51.691Z,95.17
2023-04-09T19:03:19.470Z,95.40
2023-04-09T19:05:46.620Z,96.44
2023-04-09T19:08:23.566Z,96.91
2023-04-09T19:10:54.087Z,97.04
2023-04-09T19:17:28.395Z,98.29
2023-04-09T19:19:55.511Z,96.61
2023-04-09T19:22:24.862Z,98.11
2023-04-09T19:24:54.720Z,97.98
2023-04-09T19:27:21.636Z,98.23
2023-04-09T19:29:51.568Z,97.92
2023-04-09T19:32:21.457Z,98.82
2023-04-09T19:34:54.177Z,99.58
2023-04-09T19:37:26.116Z,100.00
2023-04-09T19:39:58.349Z,100.00
2023-04-09T19:42:31.923Z,100.00
2023-04-09T19:45:00.046Z,100.00
2023-04-09T19:47:30.521Z,100.00
2023-04-09T19:50:06.165Z,100.00
2023-04-09T19:56:45.065Z,100.00
2023-04-09T19:59:11.986Z,100.00
2023-04-09T20:07:24.383Z,100.00
2023-04-09T20:09:51.121Z,100.00
2023-04-09T20:12:17.900Z,100.00
2023-04-09T20:14:45.916Z,100.00
2023-04-09T20:17:15.338Z,100.00
2023-04-09T20:19:42.075Z,100.00
2023-04-09T20:22:08.832Z,100.00
2023-04-09T20:24:35.852Z,100.00
2023-04-09T20:27:03.914Z,100.00
2023-04-09T20:29:32.938Z,100.00
2023-04-09T20:32:00.038Z,100.00
2023-04-09T20:34:27.474Z,100.00
2023-04-09T20:36:55.594Z,100.00
2023-04-09T20:39:25.031Z,100.00
2023-04-09T20:41:52.595Z,100.00
2023-04-09T20:44:19.750Z,100.00
2023-04-09T20:46:46.799Z,100.00
2023-04-09T20:49:13.557Z,100.00
2023-04-09T20:51:40.719Z,100.00
2023-04-09T20:54:07.421Z,100.00
2023-04-09T20:56:36.690Z,100.00
2023-04-09T20:59:03.787Z,100.00
2023-04-09T21:01:30.562Z,100.00
2023-04-09T21:03:57.640Z,100.00
2023-04-09T21:06:24.458Z,100.00
2023-04-09T21:08:51.711Z,100.00
2023-04-09T21:11:18.557Z,100.00
2023-04-09T21:13:53.980Z,100.00
2023-04-09T21:16:21.839Z,100.00
2023-04-09T21:18:48.943Z,100.00
2023-04-09T21:21:16.130Z,100.00
2023-04-09T21:23:43.048Z,100.00
2023-04-09T21:26:11.546Z,100.00
2023-04-09T21:28:38.696Z,100.00
2023-04-09T21:31:05.718Z,100.00
2023-04-09T21:33:32.519Z,100.00
2023-04-09T21:36:04.755Z,100.00
2023-04-09T21:38:31.381Z,100.00
2023-04-09T21:40:58.473Z,100.00
2023-04-09T21:43:26.959Z,100.00
2023-04-09T21:46:03.187Z,100.00
2023-04-09T21:48:31.283Z,100.00
2023-04-09T21:51:01.268Z,100.00
2023-04-09T21:53:28.327Z,100.00
2023-04-09T21:55:55.062Z,100.00
2023-04-09T21:58:22.076Z,100.00
2023-04-09T22:00:48.638Z,100.00
2023-04-09T22:03:15.941Z,100.00
2023-04-09T22:05:43.283Z,100.00
2023-04-09T22:08:10.066Z,100.00
2023-04-09T22:10:36.872Z,100.00
2023-04-09T22:13:03.873Z,100.00
2023-04-09T22:15:33.520Z,100.00
2023-04-09T22:18:00.437Z,100.00
2023-04-09T22:20:27.214Z,100.00
2023-04-09T22:22:57.641Z,100.00
2023-04-09T22:25:24.319Z,100.00
2023-04-09T22:27:54.011Z,100.00
2023-04-09T22:30:21.980Z,100.00
2023-04-09T22:32:48.799Z,100.00
2023-04-09T22:35:18.236Z,100.00
2023-04-09T22:37:46.997Z,100.00
2023-04-09T22:40:17.120Z,100.00
2023-04-09T22:42:46.660Z,100.00
2023-04-09T22:45:13.726Z,100.00
2023-04-09T22:47:40.451Z,100.00
2023-04-09T22:50:07.912Z,100.00
2023-04-09T22:52:35.974Z,100.00
2023-04-09T22:55:03.074Z,100.00
2023-04-09T22:57:30.358Z,100.00
2023-04-09T22:59:57.701Z,100.00
2023-04-09T23:02:24.329Z,100.00
2023-04-09T23:04:51.108Z,100.00
2023-04-09T23:07:17.778Z,100.00
2023-04-09T23:09:45.290Z,100.00
2023-04-09T23:12:12.229Z,100.00
2023-04-09T23:14:38.943Z,100.00
2023-04-09T23:17:05.621Z,100.00
2023-04-09T23:19:32.360Z,100.00
2023-04-09T23:21:59.050Z,100.00
2023-04-09T23:24:25.787Z,100.00
2023-04-09T23:27:02.638Z,100.00
2023-04-09T23:29:56.474Z,100.00
2023-04-09T23:32:30.403Z,100.00
2023-04-09T23:34:58.899Z,100.00
2023-04-09T23:37:42.556Z,100.00
2023-04-09T23:40:10.599Z,100.00
2023-04-09T23:42:37.532Z,100.00
2023-04-09T23:45:07.569Z,100.00
2023-04-09T23:47:36.500Z,100.00
2023-04-09T23:50:05.794Z,100.00
2023-04-09T23:53:10.972Z,100.00
2023-04-09T23:55:41.696Z,100.00
2023-04-09T23:58:09.805Z,100.00
